createdAt,value
2023-04-24T00:00:13.284Z,95371.97
2023-04-24T00:03:10.440Z,95374.59
2023-04-24T00:06:09.079Z,95378.69
2023-04-24T00:09:06.037Z,95377.13
2023-04-24T00:12:05.394Z,95371.41
2023-04-24T00:15:03.008Z,95379.81
2023-04-24T00:18:00.153Z,95373.47
2023-04-24T00:20:57.050Z,95366.84
2023-04-24T00:23:54.474Z,95354.25
2023-04-24T00:26:51.259Z,95353.81
2023-04-24T00:29:48.231Z,95335.81
2023-04-24T00:32:45.128Z,95341.66
2023-04-24T00:35:41.976Z,95350.50
2023-04-24T00:38:38.802Z,95357.78
2023-04-24T00:41:36.309Z,95340.50
2023-04-24T00:44:35.463Z,95348.56
2023-04-24T00:47:34.459Z,95347.06
2023-04-24T00:50:31.464Z,95353.94
2023-04-24T00:53:28.283Z,95355.88
2023-04-24T00:56:25.226Z,95344.69
2023-04-24T00:59:22.040Z,95338.13
2023-04-24T01:02:19.678Z,95347.91
2023-04-24T01:05:18.242Z,95337.38
2023-04-24T01:08:16.213Z,95336.91
2023-04-24T01:11:13.122Z,95344.34
2023-04-24T01:14:10.684Z,95348.09
2023-04-24T01:17:08.309Z,95346.72
2023-04-24T01:20:06.880Z,95340.63
2023-04-24T01:23:03.944Z,95332.75
2023-04-24T01:26:01.005Z,95337.88
2023-04-24T01:28:58.257Z,95340.88
2023-04-24T01:31:56.254Z,95341.50
2023-04-24T01:34:53.524Z,95342.06
2023-04-24T01:37:50.561Z,95335.00
2023-04-24T01:40:47.848Z,95338.59
2023-04-24T01:43:44.794Z,95334.75
2023-04-24T01:46:42.128Z,95332.53
2023-04-24T01:49:42.367Z,95324.13
2023-04-24T01:52:40.051Z,95328.50
2023-04-24T01:55:36.865Z,95318.34
2023-04-24T01:58:33.792Z,95326.53
2023-04-24T02:01:39.326Z,95318.00
2023-04-24T02:04:36.206Z,95323.72
2023-04-24T02:07:33.785Z,95303.53
2023-04-24T02:10:30.784Z,95323.22
2023-04-24T02:13:27.627Z,95331.34
2023-04-24T02:16:24.522Z,95321.41
2023-04-24T02:19:21.456Z,95320.09
2023-04-24T02:22:18.268Z,95325.28
2023-04-24T02:25:15.243Z,95324.09
2023-04-24T02:28:12.084Z,95324.41
2023-04-24T02:31:08.938Z,95322.53
2023-04-24T02:34:05.766Z,95319.13
2023-04-24T02:37:02.601Z,95325.56
2023-04-24T02:39:59.401Z,95324.25
2023-04-24T02:42:56.225Z,95320.19
2023-04-24T02:45:53.108Z,95322.16
2023-04-24T02:48:49.959Z,95305.47
2023-04-24T02:51:46.784Z,95302.00
2023-04-24T02:54:44.102Z,95306.56
2023-04-24T02:57:40.951Z,95289.03
2023-04-24T03:00:37.759Z,95298.63
2023-04-24T03:03:34.684Z,95303.88
2023-04-24T03:06:33.861Z,95295.72
2023-04-24T03:09:30.793Z,95285.19
2023-04-24T03:12:27.638Z,95285.69
2023-04-24T03:15:24.469Z,95287.41
2023-04-24T03:18:21.579Z,95287.97
2023-04-24T03:21:18.508Z,95286.56
2023-04-24T03:24:15.472Z,95281.97
2023-04-24T03:27:12.311Z,95274.69
2023-04-24T03:30:09.716Z,95282.91
2023-04-24T03:33:06.697Z,95278.06
2023-04-24T03:36:04.035Z,95277.91
2023-04-24T03:39:00.857Z,95281.72
2023-04-24T03:41:57.701Z,95277.19
2023-04-24T03:44:54.585Z,95277.91
2023-04-24T03:47:51.483Z,95281.53
2023-04-24T03:50:48.379Z,95284.84
2023-04-24T03:53:45.234Z,95284.47
2023-04-24T03:56:42.055Z,95279.47
2023-04-24T03:59:38.854Z,95284.97
2023-04-24T04:02:35.863Z,95287.09
2023-04-24T04:05:32.885Z,95283.78
2023-04-24T04:08:29.686Z,95285.44
2023-04-24T04:11:26.769Z,95280.59
2023-04-24T04:14:24.454Z,95283.53
2023-04-24T04:17:21.287Z,95278.69
2023-04-24T04:20:18.625Z,95292.72
2023-04-24T04:23:15.759Z,95282.69
2023-04-24T04:26:13.825Z,95289.69
2023-04-24T04:29:11.266Z,95290.63
2023-04-24T04:32:08.265Z,95286.22
2023-04-24T04:35:06.112Z,95293.66
2023-04-24T04:38:02.938Z,95298.69
2023-04-24T04:40:59.856Z,95290.09
2023-04-24T04:43:59.540Z,95291.59
2023-04-24T04:46:57.398Z,95294.50
2023-04-24T04:49:54.521Z,95299.22
2023-04-24T04:52:51.378Z,95285.78
2023-04-24T04:55:48.539Z,95293.84
2023-04-24T04:58:45.505Z,95294.44
2023-04-24T05:01:42.445Z,95291.50
2023-04-24T05:04:39.562Z,95301.03
2023-04-24T05:07:36.682Z,95308.38
2023-04-24T05:10:33.511Z,95308.06
2023-04-24T05:13:39.203Z,95310.66
2023-04-24T05:16:38.211Z,95311.00
2023-04-24T05:19:37.015Z,95311.53
2023-04-24T05:22:34.131Z,95300.50
2023-04-24T05:25:33.216Z,95311.00
2023-04-24T05:28:30.110Z,95306.41
2023-04-24T05:31:27.029Z,95306.28
2023-04-24T05:34:24.001Z,95309.97
2023-04-24T05:37:20.818Z,95311.06
2023-04-24T05:40:17.807Z,95315.06
2023-04-24T05:43:14.783Z,95315.75
2023-04-24T05:46:13.039Z,95318.09
2023-04-24T05:49:09.913Z,95302.56
2023-04-24T05:52:09.670Z,95319.84
2023-04-24T05:55:07.311Z,95315.75
2023-04-24T05:58:04.163Z,95320.53
2023-04-24T06:01:02.647Z,95319.47
2023-04-24T06:03:59.749Z,95315.06
2023-04-24T06:06:57.152Z,95324.94
2023-04-24T06:09:54.083Z,95336.03
2023-04-24T06:12:51.009Z,95336.81
2023-04-24T06:15:47.847Z,95334.56
2023-04-24T06:18:44.714Z,95329.34
2023-04-24T06:21:41.580Z,95334.69
2023-04-24T06:24:38.399Z,95328.28
2023-04-24T06:27:36.163Z,95332.38
2023-04-24T06:30:33.081Z,95341.97
2023-04-24T06:33:30.428Z,95342.25
2023-04-24T06:36:27.433Z,95352.63
2023-04-24T06:39:24.261Z,95341.91
2023-04-24T06:42:22.933Z,95341.41
2023-04-24T06:45:20.140Z,95346.41
2023-04-24T06:48:16.972Z,95346.50
2023-04-24T06:51:13.826Z,95346.94
2023-04-24T06:54:11.759Z,95345.38
2023-04-24T06:57:09.677Z,95348.81
2023-04-24T07:00:08.183Z,95344.25
2023-04-24T07:03:06.824Z,95344.84
2023-04-24T07:06:05.278Z,95343.91
2023-04-24T07:09:02.761Z,95348.59
2023-04-24T07:11:59.645Z,95345.03
2023-04-24T07:14:56.519Z,95344.34
2023-04-24T07:17:53.348Z,95344.13
2023-04-24T07:20:51.238Z,95345.03
2023-04-24T07:23:48.074Z,95353.06
2023-04-24T07:26:44.937Z,95345.28
2023-04-24T07:29:42.727Z,95344.19
2023-04-24T07:32:39.756Z,95355.44
2023-04-24T07:35:36.675Z,95354.25
2023-04-24T07:38:33.546Z,95361.84
2023-04-24T07:41:30.362Z,95365.41
2023-04-24T07:44:27.394Z,95375.09
2023-04-24T07:47:24.917Z,95363.63
2023-04-24T07:50:22.034Z,95360.34
2023-04-24T07:53:19.013Z,95368.97
2023-04-24T07:56:15.893Z,95369.78
2023-04-24T07:59:13.432Z,95373.47
2023-04-24T08:02:10.776Z,95379.72
2023-04-24T08:05:08.813Z,95378.78
2023-04-24T08:08:05.918Z,95384.06
2023-04-24T08:11:02.780Z,95392.41
2023-04-24T08:14:00.197Z,95381.53
2023-04-24T08:16:57.303Z,95383.84
2023-04-24T08:20:00.191Z,95380.22
2023-04-24T08:22:57.559Z,95382.31
2023-04-24T08:25:54.968Z,95386.00
2023-04-24T08:28:51.821Z,95380.97
2023-04-24T08:31:48.751Z,95390.28
2023-04-24T08:34:46.782Z,95388.91
2023-04-24T08:37:45.737Z,95388.66
2023-04-24T08:40:42.866Z,95397.94
2023-04-24T08:43:40.960Z,95376.13
2023-04-24T08:46:38.532Z,95387.69
2023-04-24T08:49:37.573Z,95392.38
2023-04-24T08:52:35.380Z,95396.41
2023-04-24T08:55:34.015Z,95399.94
2023-04-24T08:58:32.743Z,95397.66
2023-04-24T09:01:32.929Z,95414.28
2023-04-24T09:04:31.289Z,95416.00
2023-04-24T09:07:31.316Z,95415.88
2023-04-24T09:10:31.413Z,95413.88
2023-04-24T09:13:28.575Z,95408.19
2023-04-24T09:16:27.360Z,95404.34
2023-04-24T09:19:24.252Z,95411.84
2023-04-24T09:22:22.072Z,95408.13
2023-04-24T09:25:19.571Z,95407.34
2023-04-24T09:28:17.494Z,95424.97
2023-04-24T09:31:23.016Z,95412.38
2023-04-24T09:34:28.485Z,95415.97
2023-04-24T09:37:30.529Z,95414.66
2023-04-24T09:40:27.534Z,95406.84
2023-04-24T09:43:27.339Z,95418.78
2023-04-24T09:46:35.134Z,95423.59
2023-04-24T09:49:36.860Z,95415.84
2023-04-24T09:52:33.689Z,95427.16
2023-04-24T09:55:31.883Z,95429.09
2023-04-24T09:58:30.760Z,95425.41
2023-04-24T10:01:34.824Z,95429.88
2023-04-24T10:04:31.755Z,95426.09
2023-04-24T10:07:29.088Z,95424.53
2023-04-24T10:10:26.749Z,95438.34
2023-04-24T10:13:23.652Z,95443.25
2023-04-24T10:16:22.320Z,95448.06
2023-04-24T10:19:19.794Z,95443.34
2023-04-24T10:22:18.597Z,95443.34
2023-04-24T10:25:17.450Z,95448.91
2023-04-24T10:28:15.249Z,95452.66
2023-04-24T10:31:14.031Z,95456.63
2023-04-24T10:34:11.919Z,95443.78
2023-04-24T10:37:08.863Z,95463.91
2023-04-24T10:40:08.759Z,95442.56
2023-04-24T10:43:11.920Z,95448.91
2023-04-24T10:46:11.477Z,95442.91
2023-04-24T10:49:12.639Z,95448.53
2023-04-24T10:52:10.500Z,95456.88
2023-04-24T10:55:11.028Z,95453.69
2023-04-24T10:58:07.884Z,95459.81
2023-04-24T11:01:05.263Z,95463.16
2023-04-24T11:04:04.591Z,95466.50
2023-04-24T11:07:03.141Z,95466.38
2023-04-24T11:10:02.160Z,95472.94
2023-04-24T11:12:58.980Z,95469.72
2023-04-24T11:16:36.793Z,95481.41
2023-04-24T11:19:35.362Z,95463.94
2023-04-24T11:22:36.384Z,95474.41
2023-04-24T11:25:33.814Z,95482.75
2023-04-24T11:28:30.702Z,95485.94
2023-04-24T11:31:49.570Z,95494.47
2023-04-24T11:35:02.153Z,95504.69
2023-04-24T11:41:06.942Z,95521.16
2023-04-24T11:44:07.011Z,95523.94
2023-04-24T11:47:08.083Z,95505.63
2023-04-24T11:50:08.739Z,95518.94
2023-04-24T11:53:05.602Z,95515.22
2023-04-24T11:56:06.026Z,95516.34
2023-04-24T11:59:05.642Z,95520.97
2023-04-24T12:02:02.473Z,95521.50
2023-04-24T12:04:59.421Z,95530.28
2023-04-24T12:07:56.474Z,95518.19
2023-04-24T12:10:53.400Z,95515.81
2023-04-24T12:13:50.834Z,95511.03
2023-04-24T12:16:50.895Z,95528.69
2023-04-24T12:19:49.580Z,95530.66
2023-04-24T12:22:55.292Z,95526.41
2023-04-24T12:25:52.616Z,95527.34
2023-04-24T12:28:51.115Z,95524.75
2023-04-24T12:31:48.573Z,95517.31
2023-04-24T12:34:45.627Z,95522.03
2023-04-24T12:37:46.483Z,95508.16
2023-04-24T12:40:45.388Z,95508.69
2023-04-24T12:43:56.469Z,95508.41
2023-04-24T12:46:53.420Z,95509.19
2023-04-24T12:49:51.980Z,95509.56
2023-04-24T12:52:48.931Z,95509.91
2023-04-24T12:55:47.877Z,95497.22
2023-04-24T12:58:44.689Z,95503.97
2023-04-24T13:01:42.460Z,95501.41
2023-04-24T13:04:39.339Z,95499.56
2023-04-24T13:07:36.221Z,95502.03
2023-04-24T13:10:33.111Z,95511.28
2023-04-24T13:13:29.953Z,95524.56
2023-04-24T13:16:26.785Z,95524.16
2023-04-24T13:19:27.911Z,95531.16
2023-04-24T13:22:24.847Z,95521.44
2023-04-24T13:25:23.710Z,95520.75
2023-04-24T13:28:20.536Z,95507.19
2023-04-24T13:31:17.939Z,95526.22
2023-04-24T13:34:15.426Z,95525.31
2023-04-24T13:37:12.428Z,95517.16
2023-04-24T13:40:10.147Z,95523.72
2023-04-24T13:43:07.008Z,95519.81
2023-04-24T13:46:04.162Z,95519.19
2023-04-24T13:49:01.240Z,95520.78
2023-04-24T13:51:58.394Z,95528.78
2023-04-24T13:54:55.386Z,95531.22
2023-04-24T13:57:53.170Z,95545.41
2023-04-24T14:00:50.055Z,95558.56
2023-04-24T14:03:47.173Z,95548.81
2023-04-24T14:06:45.188Z,95542.13
2023-04-24T14:09:42.443Z,95551.31
2023-04-24T14:12:39.269Z,95564.44
2023-04-24T14:15:37.153Z,95571.53
2023-04-24T14:18:34.034Z,95568.28
2023-04-24T14:21:31.443Z,95566.91
2023-04-24T14:24:28.280Z,95571.06
2023-04-24T14:27:26.890Z,95563.59
2023-04-24T14:30:23.825Z,95555.03
2023-04-24T14:33:20.736Z,95564.88
2023-04-24T14:36:17.741Z,95562.59
2023-04-24T14:39:14.567Z,95579.81
2023-04-24T14:42:11.379Z,95580.06
2023-04-24T14:45:09.228Z,95567.91
2023-04-24T14:48:06.319Z,95568.53
2023-04-24T14:51:03.251Z,95570.78
2023-04-24T14:54:00.117Z,95569.66
2023-04-24T14:56:59.781Z,95579.59
2023-04-24T14:59:56.648Z,95601.44
2023-04-24T15:02:53.697Z,95610.25
2023-04-24T15:05:51.860Z,95625.31
2023-04-24T15:08:50.410Z,95626.03
2023-04-24T15:11:47.974Z,95638.19
2023-04-24T15:14:44.803Z,95632.22
2023-04-24T15:17:41.674Z,95647.63
2023-04-24T15:20:40.088Z,95650.34
2023-04-24T15:23:37.335Z,95651.31
2023-04-24T15:26:34.421Z,95649.94
2023-04-24T15:29:31.336Z,95654.56
2023-04-24T15:32:28.254Z,95650.59
2023-04-24T15:35:25.299Z,95640.09
2023-04-24T15:38:22.189Z,95656.47
2023-04-24T15:41:19.029Z,95661.25
2023-04-24T15:44:15.844Z,95661.34
2023-04-24T15:47:14.990Z,95654.91
2023-04-24T15:50:14.510Z,95655.00
2023-04-24T15:53:11.569Z,95658.63
2023-04-24T15:56:08.893Z,95655.78
2023-04-24T15:59:06.375Z,95650.78
2023-04-24T16:02:04.782Z,95653.44
2023-04-24T16:05:01.986Z,95653.47
2023-04-24T16:07:58.851Z,95660.13
2023-04-24T16:10:55.744Z,95663.72
2023-04-24T16:13:52.625Z,95668.59
2023-04-24T16:16:49.446Z,95659.63
2023-04-24T16:19:46.433Z,95662.44
2023-04-24T16:22:43.313Z,95667.34
2023-04-24T16:25:40.319Z,95667.19
2023-04-24T16:28:37.226Z,95665.69
2023-04-24T16:31:34.162Z,95673.06
2023-04-24T16:34:31.105Z,95673.72
2023-04-24T16:37:30.739Z,95679.00
2023-04-24T16:40:27.656Z,95667.94
2023-04-24T16:43:24.552Z,95671.31
2023-04-24T16:46:21.665Z,95669.91
2023-04-24T16:49:18.621Z,95674.38
2023-04-24T16:52:16.304Z,95681.13
2023-04-24T16:55:13.361Z,95685.53
2023-04-24T16:58:10.328Z,95694.88
2023-04-24T17:01:07.240Z,95698.81
2023-04-24T17:04:04.246Z,95702.28
2023-04-24T17:07:01.553Z,95699.19
2023-04-24T17:09:58.426Z,95690.56
2023-04-24T17:12:55.575Z,95697.44
2023-04-24T17:15:52.477Z,95700.84
2023-04-24T17:18:50.000Z,95701.72
2023-04-24T17:21:47.027Z,95681.78
2023-04-24T17:24:43.867Z,95694.75
2023-04-24T17:27:40.742Z,95695.28
2023-04-24T17:30:37.584Z,95696.38
2023-04-24T17:33:34.445Z,95703.91
2023-04-24T17:36:32.398Z,95702.41
2023-04-24T17:39:29.270Z,95712.53
2023-04-24T17:42:26.217Z,95700.88
2023-04-24T17:45:23.095Z,95706.53
2023-04-24T17:48:20.092Z,95702.41
2023-04-24T17:51:16.916Z,95716.44
2023-04-24T17:54:13.738Z,95709.28
2023-04-24T17:57:10.659Z,95713.16
2023-04-24T18:00:08.902Z,95718.81
2023-04-24T18:03:08.842Z,95725.22
2023-04-24T18:06:06.488Z,95721.00
2023-04-24T18:09:03.535Z,95737.56
2023-04-24T18:12:01.626Z,95739.81
2023-04-24T18:15:13.017Z,95741.94
2023-04-24T18:18:11.761Z,95738.84
2023-04-24T18:21:08.604Z,95744.81
2023-04-24T18:24:06.157Z,95748.94
2023-04-24T18:27:03.703Z,95751.16
2023-04-24T18:30:00.836Z,95751.94
2023-04-24T18:32:58.517Z,95756.13
2023-04-24T18:35:55.774Z,95761.03
2023-04-24T18:38:52.660Z,95753.66
2023-04-24T18:41:49.527Z,95753.13
2023-04-24T18:44:46.473Z,95751.69
2023-04-24T18:47:44.088Z,95749.97
2023-04-24T18:50:41.093Z,95753.16
2023-04-24T18:53:37.914Z,95763.03
2023-04-24T18:56:34.721Z,95771.22
2023-04-24T18:59:32.207Z,95770.88
2023-04-24T19:02:29.687Z,95780.88
2023-04-24T19:05:26.659Z,95779.41
2023-04-24T19:08:23.549Z,95785.38
2023-04-24T19:11:20.505Z,95787.88
2023-04-24T19:14:19.327Z,95788.28
2023-04-24T19:17:22.485Z,95793.44
2023-04-24T19:20:19.872Z,95792.28
2023-04-24T19:23:16.720Z,95802.88
2023-04-24T19:26:14.511Z,95793.16
2023-04-24T19:29:11.545Z,95786.66
2023-04-24T19:32:08.968Z,95797.63
2023-04-24T19:35:06.343Z,95794.28
2023-04-24T19:38:03.188Z,95798.72
2023-04-24T19:41:00.022Z,95796.59
2023-04-24T19:43:56.825Z,95795.34
2023-04-24T19:46:53.669Z,95801.00
2023-04-24T19:49:50.545Z,95802.88
2023-04-24T19:52:47.353Z,95802.56
2023-04-24T19:55:44.181Z,95801.38
2023-04-24T19:58:41.312Z,95800.53
2023-04-24T20:01:39.636Z,95807.97
2023-04-24T20:04:36.815Z,95805.78
2023-04-24T20:07:34.196Z,95798.00
2023-04-24T20:10:31.227Z,95804.66
2023-04-24T20:13:28.203Z,95797.47
2023-04-24T20:16:25.156Z,95804.84
2023-04-24T20:19:22.238Z,95796.97
2023-04-24T20:22:19.067Z,95803.75
2023-04-24T20:25:16.319Z,95806.06
2023-04-24T20:28:14.766Z,95811.88
2023-04-24T20:31:11.611Z,95806.69
2023-04-24T20:34:08.698Z,95805.88
2023-04-24T20:37:06.271Z,95810.28
2023-04-24T20:40:05.529Z,95808.38
2023-04-24T20:43:02.556Z,95812.19
2023-04-24T20:45:59.723Z,95811.41
2023-04-24T20:48:56.754Z,95816.03
2023-04-24T20:51:53.596Z,95817.91
2023-04-24T20:54:50.458Z,95800.91
2023-04-24T20:57:47.312Z,95806.16
2023-04-24T21:00:44.947Z,95810.75
2023-04-24T21:03:42.248Z,95802.88
2023-04-24T21:06:39.165Z,95811.06
2023-04-24T21:09:36.041Z,95812.78
2023-04-24T21:12:32.852Z,95800.31
2023-04-24T21:15:30.793Z,95801.13
2023-04-24T21:18:27.666Z,95803.06
2023-04-24T21:21:25.111Z,95804.34
2023-04-24T21:24:22.791Z,95807.72
2023-04-24T21:27:19.618Z,95798.78
2023-04-24T21:30:16.622Z,95793.25
2023-04-24T21:33:13.561Z,95795.72
2023-04-24T21:36:10.605Z,95797.94
2023-04-24T21:39:07.413Z,95795.03
2023-04-24T21:42:04.506Z,95797.16
2023-04-24T21:45:01.354Z,95787.69
2023-04-24T21:47:59.641Z,95781.31
2023-04-24T21:50:56.612Z,95779.34
2023-04-24T21:53:53.433Z,95776.81
2023-04-24T21:56:50.715Z,95776.00
2023-04-24T21:59:47.756Z,95763.69
2023-04-24T22:02:44.670Z,95775.44
2023-04-24T22:05:41.643Z,95780.47
2023-04-24T22:08:38.480Z,95778.69
2023-04-24T22:11:36.845Z,95781.50
2023-04-24T22:14:33.792Z,95785.84
2023-04-24T22:17:30.681Z,95776.81
2023-04-24T22:20:30.103Z,95773.53
2023-04-24T22:23:27.071Z,95765.41
2023-04-24T22:26:23.904Z,95768.09
2023-04-24T22:29:20.710Z,95771.53
2023-04-24T22:32:17.524Z,95767.63
2023-04-24T22:35:14.324Z,95772.69
2023-04-24T22:38:11.121Z,95754.91
2023-04-24T22:41:08.316Z,95764.78
2023-04-24T22:44:05.231Z,95756.38
2023-04-24T22:47:06.920Z,95748.72
2023-04-24T22:50:05.813Z,95754.91
2023-04-24T22:53:02.671Z,95748.88
2023-04-24T22:56:00.315Z,95756.13
2023-04-24T22:58:58.706Z,95737.53
2023-04-24T23:01:56.357Z,95741.16
2023-04-24T23:04:54.310Z,95738.00
2023-04-24T23:07:51.175Z,95744.28
2023-04-24T23:10:48.207Z,95740.44
2023-04-24T23:13:45.024Z,95736.75
2023-04-24T23:16:42.770Z,95734.22
2023-04-24T23:19:39.743Z,95741.78
2023-04-24T23:22:36.617Z,95740.50
2023-04-24T23:25:33.602Z,95734.13
2023-04-24T23:28:30.496Z,95733.94
2023-04-24T23:31:27.321Z,95743.53
2023-04-24T23:34:24.277Z,95722.91
2023-04-24T23:37:21.528Z,95724.97
2023-04-24T23:40:18.422Z,95721.34
2023-04-24T23:43:15.336Z,95712.69
2023-04-24T23:46:12.728Z,95714.91
2023-04-24T23:49:09.644Z,95714.75
2023-04-24T23:52:06.657Z,95710.06
2023-04-24T23:55:04.872Z,95722.00
2023-04-24T23:58:01.776Z,95720.44
